createdAt,value
2019-02-27T16:46:45.843Z,102099.32
2019-02-27T16:49:37.825Z,102090.05
2019-02-27T16:52:30.335Z,102085.98
2019-02-27T16:55:23.746Z,102087.23
2019-02-27T16:58:15.411Z,102082.67
2019-02-27T17:01:08.517Z,102085.77
2019-02-27T17:04:00.582Z,102085.66
2019-02-27T17:06:52.797Z,102087.18
2019-02-27T17:09:44.674Z,102084.23
2019-02-27T17:12:38.270Z,102081.97
2019-02-27T17:15:34.529Z,102081.48
2019-02-27T17:18:28.059Z,102077.36
2019-02-27T17:21:16.576Z,102078.71
2019-02-27T17:24:08.311Z,102077.40
2019-02-27T17:27:00.019Z,102077.76
2019-02-27T17:29:52.317Z,102071.70
2019-02-27T17:32:43.969Z,102074.25
2019-02-27T17:35:35.789Z,102071.70
2019-02-27T17:38:27.281Z,102070.27
2019-02-27T17:41:18.845Z,102064.27
2019-02-27T17:44:10.452Z,102068.77
2019-02-27T17:47:02.083Z,102072.97
2019-02-27T17:49:57.466Z,102074.27
2019-02-27T17:52:48.943Z,102071.76
2019-02-27T17:55:41.680Z,102074.44
2019-02-27T17:58:34.995Z,102074.72
2019-02-27T18:01:26.413Z,102071.14
2019-02-27T18:04:18.012Z,102068.06
2019-02-27T18:07:09.900Z,102063.63
2019-02-27T18:10:02.348Z,102067.89
2019-02-27T18:12:53.906Z,102072.07
2019-02-27T18:15:45.214Z,102063.98
2019-02-27T18:18:36.715Z,102064.20
2019-02-27T18:21:33.189Z,102073.77
2019-02-27T18:24:21.596Z,102068.33
2019-02-27T18:27:12.909Z,102066.81
2019-02-27T18:30:06.406Z,102068.63
2019-02-27T18:33:01.112Z,102071.48
2019-02-27T18:35:54.564Z,102073.20
2019-02-27T18:38:46.541Z,102082.38
2019-02-27T18:41:39.774Z,102079.96
2019-02-27T18:44:32.653Z,102079.52
2019-02-27T18:47:24.000Z,102085.41
2019-02-27T18:50:15.690Z,102079.47
2019-02-27T18:53:07.572Z,102081.38
2019-02-27T18:56:02.030Z,102080.69
2019-02-27T18:58:55.308Z,102085.77
2019-02-27T19:01:46.090Z,102088.58
2019-02-27T19:04:37.851Z,102092.19
2019-02-27T19:07:29.356Z,102095.52
2019-02-27T19:10:21.105Z,102092.41
2019-02-27T19:13:12.764Z,102090.41
2019-02-27T19:16:04.341Z,102083.05
2019-02-27T19:18:56.088Z,102086.81
2019-02-27T19:21:47.656Z,102081.24
2019-02-27T19:24:39.284Z,102080.28
2019-02-27T19:27:30.792Z,102076.92
2019-02-27T19:30:22.546Z,102077.11
2019-02-27T19:33:14.879Z,102075.20
2019-02-27T19:36:06.613Z,102071.31
2019-02-27T19:38:58.055Z,102068.28
2019-02-27T19:41:49.869Z,102066.77
2019-02-27T19:44:42.056Z,102064.85
2019-02-27T19:47:33.684Z,102067.02
2019-02-27T19:50:26.279Z,102066.11
2019-02-27T19:53:17.617Z,102065.89
2019-02-27T19:56:09.787Z,102071.92
2019-02-27T19:59:01.323Z,102073.59
2019-02-27T20:01:52.755Z,102071.47
2019-02-27T20:04:46.003Z,102065.55
2019-02-27T20:07:37.602Z,102070.02
2019-02-27T20:10:32.235Z,102067.14
2019-02-27T20:13:24.657Z,102065.27
2019-02-27T20:16:17.729Z,102061.95
2019-02-27T20:19:08.916Z,102061.59
2019-02-27T20:22:00.201Z,102052.95
2019-02-27T20:24:52.952Z,102051.20
2019-02-27T20:27:44.356Z,102045.62
2019-02-27T20:30:36.123Z,102044.63
2019-02-27T20:33:28.466Z,102040.89
2019-02-27T20:36:19.760Z,102043.44
2019-02-27T20:39:11.327Z,102043.69
2019-02-27T20:42:02.464Z,102042.41
2019-02-27T20:44:54.189Z,102040.05
2019-02-27T20:47:46.501Z,102035.85
2019-02-27T20:50:41.885Z,102038.23
2019-02-27T20:53:33.983Z,102038.13
2019-02-27T20:56:25.728Z,102035.06
2019-02-27T20:59:17.294Z,102036.70
2019-02-27T21:02:08.586Z,102037.18
2019-02-27T21:05:00.611Z,102034.90
2019-02-27T21:07:53.522Z,102030.92
2019-02-27T21:10:46.619Z,102025.81
2019-02-27T21:13:38.213Z,102030.22
2019-02-27T21:16:29.635Z,102033.77
2019-02-27T21:19:20.961Z,102024.83
2019-02-27T21:22:12.373Z,102026.78
2019-02-27T21:25:03.774Z,102022.79
2019-02-27T21:27:55.475Z,102020.64
2019-02-27T21:30:51.913Z,102021.26
2019-02-27T21:33:42.504Z,102018.09
2019-02-27T21:36:36.791Z,102021.89
2019-02-27T21:39:28.380Z,102015.06
